createdAt,value
2022-12-04T00:02:24.941Z,112.85
2022-12-04T00:04:51.453Z,102.50
2022-12-04T00:07:17.985Z,107.90
2022-12-04T00:09:44.503Z,105.75
2022-12-04T00:12:11.056Z,127.10
2022-12-04T00:14:54.535Z,104.55
2022-12-04T00:17:24.153Z,118.53
2022-12-04T00:19:50.606Z,107.82
2022-12-04T00:22:17.091Z,110.20
2022-12-04T00:24:43.577Z,131.30
2022-12-04T00:27:10.027Z,111.80
2022-12-04T00:29:36.973Z,117.65
2022-12-04T00:32:03.643Z,120.10
2022-12-04T00:34:30.312Z,114.30
2022-12-04T00:36:56.791Z,110.18
2022-12-04T00:39:23.437Z,115.03
2022-12-04T00:41:49.848Z,133.88
2022-12-04T00:44:16.414Z,129.82
2022-12-04T00:46:43.010Z,137.15
2022-12-04T00:49:09.562Z,126.78
2022-12-04T00:51:36.040Z,132.52
2022-12-04T00:54:02.472Z,125.95
2022-12-04T00:56:29.563Z,118.97
2022-12-04T00:58:57.611Z,116.97
2022-12-04T01:01:24.660Z,99.70
2022-12-04T01:03:51.709Z,105.53
2022-12-04T01:06:24.437Z,135.82
2022-12-04T01:08:51.282Z,105.72
2022-12-04T01:11:18.144Z,105.68
2022-12-04T01:13:44.823Z,106.78
2022-12-04T01:16:18.472Z,124.20
2022-12-04T01:18:45.059Z,147.55
2022-12-04T01:21:11.606Z,123.00
2022-12-04T01:23:38.277Z,102.93
2022-12-04T01:26:05.198Z,105.80
2022-12-04T01:28:31.930Z,103.25
2022-12-04T01:31:02.262Z,97.93
2022-12-04T01:33:29.705Z,117.20
2022-12-04T01:35:57.350Z,107.38
2022-12-04T01:38:24.124Z,124.78
2022-12-04T01:40:50.845Z,116.72
2022-12-04T01:43:17.743Z,102.80
2022-12-04T01:45:51.512Z,107.97
2022-12-04T01:48:20.181Z,116.05
2022-12-04T01:50:47.944Z,121.65
2022-12-04T01:53:14.921Z,112.28
2022-12-04T01:55:42.089Z,125.05
2022-12-04T01:58:08.944Z,102.15
2022-12-04T02:00:35.529Z,133.07
2022-12-04T02:03:02.136Z,130.43
2022-12-04T02:05:28.704Z,119.47
2022-12-04T02:07:57.633Z,87.38
2022-12-04T02:10:29.927Z,102.80
2022-12-04T02:13:19.437Z,103.32
2022-12-04T02:15:50.401Z,105.10
2022-12-04T02:18:38.323Z,137.10
2022-12-04T02:21:04.871Z,116.47
2022-12-04T02:23:37.104Z,92.25
2022-12-04T02:26:12.696Z,106.82
2022-12-04T02:28:47.962Z,112.53
2022-12-04T02:31:18.395Z,100.55
2022-12-04T02:33:45.136Z,92.97
2022-12-04T02:36:14.494Z,110.38
2022-12-04T02:38:43.768Z,89.20
2022-12-04T02:41:36.640Z,92.80
2022-12-04T02:44:26.582Z,97.57
2022-12-04T02:46:56.050Z,90.70
2022-12-04T02:49:25.236Z,89.88
2022-12-04T02:51:52.740Z,100.60
2022-12-04T02:54:25.572Z,104.38
2022-12-04T02:56:52.435Z,102.97
2022-12-04T02:59:39.234Z,106.63
2022-12-04T03:02:17.528Z,99.97
2022-12-04T03:04:46.708Z,92.45
2022-12-04T03:07:15.291Z,89.85
2022-12-04T03:09:51.044Z,104.88
2022-12-04T03:12:36.434Z,110.07
2022-12-04T03:15:06.152Z,114.03
2022-12-04T03:17:51.972Z,106.93
2022-12-04T03:20:19.663Z,103.07
2022-12-04T03:22:48.165Z,95.70
2022-12-04T03:25:14.689Z,96.78
2022-12-04T03:28:16.744Z,85.75
2022-12-04T03:30:52.647Z,91.93
2022-12-04T03:33:21.617Z,91.35
2022-12-04T03:35:51.275Z,114.10
2022-12-04T03:38:26.572Z,87.28
2022-12-04T03:40:56.573Z,99.20
2022-12-04T03:43:22.996Z,110.40
2022-12-04T03:45:58.002Z,88.55
2022-12-04T03:48:28.537Z,109.38
2022-12-04T03:50:55.024Z,109.07
2022-12-04T03:53:39.363Z,91.00
2022-12-04T03:56:14.195Z,104.53
2022-12-04T03:58:42.939Z,96.05
2022-12-04T04:01:10.415Z,95.75
2022-12-04T04:03:39.569Z,87.95
2022-12-04T04:06:07.753Z,111.30
2022-12-04T04:08:35.788Z,81.68
2022-12-04T04:11:22.581Z,82.72
2022-12-04T04:14:32.237Z,88.88
2022-12-04T04:17:20.673Z,89.20
2022-12-04T04:20:08.597Z,90.00
2022-12-04T04:22:56.177Z,99.40
2022-12-04T04:25:24.437Z,94.95
2022-12-04T04:27:51.835Z,84.18
2022-12-04T04:30:18.344Z,104.13
2022-12-04T04:32:59.403Z,103.38
2022-12-04T04:35:30.768Z,103.25
2022-12-04T04:38:15.586Z,85.18
2022-12-04T04:41:14.278Z,99.00
2022-12-04T04:43:46.633Z,103.18
2022-12-04T04:46:17.346Z,85.88
2022-12-04T04:48:48.805Z,84.63
2022-12-04T04:51:15.467Z,79.25
2022-12-04T04:53:50.468Z,90.53
2022-12-04T04:56:17.506Z,84.53
2022-12-04T04:58:44.187Z,109.70
2022-12-04T05:01:12.414Z,94.97
2022-12-04T05:03:39.302Z,80.40
2022-12-04T05:06:06.749Z,96.47
2022-12-04T05:08:33.639Z,94.95
2022-12-04T05:11:00.075Z,75.70
2022-12-04T05:13:27.737Z,86.25
2022-12-04T05:16:05.204Z,68.65
2022-12-04T05:18:32.504Z,101.53
2022-12-04T05:20:58.979Z,93.07
2022-12-04T05:23:25.781Z,87.15
2022-12-04T05:25:58.795Z,119.13
2022-12-04T05:28:25.257Z,108.43
2022-12-04T05:30:56.126Z,80.30
2022-12-04T05:33:22.936Z,96.45
2022-12-04T05:35:56.637Z,102.43
2022-12-04T05:38:23.119Z,77.57
2022-12-04T05:40:49.594Z,92.05
2022-12-04T05:43:16.111Z,82.40
2022-12-04T05:45:42.728Z,84.38
2022-12-04T05:48:09.326Z,73.25
2022-12-04T05:50:35.883Z,102.53
2022-12-04T05:53:03.051Z,87.28
2022-12-04T05:55:29.613Z,103.50
2022-12-04T05:57:56.084Z,85.35
2022-12-04T06:00:22.739Z,107.75
2022-12-04T06:02:49.247Z,96.55
2022-12-04T06:05:15.753Z,110.60
2022-12-04T06:07:42.404Z,90.57
2022-12-04T06:10:08.927Z,110.38
2022-12-04T06:12:35.480Z,106.13
2022-12-04T06:15:02.097Z,111.32
2022-12-04T06:17:28.735Z,107.22
2022-12-04T06:19:56.498Z,98.68
2022-12-04T06:22:23.305Z,110.20
2022-12-04T06:24:49.776Z,108.30
2022-12-04T06:27:31.460Z,93.78
2022-12-04T06:29:58.348Z,87.57
2022-12-04T06:32:25.250Z,83.07
2022-12-04T06:34:53.053Z,83.13
2022-12-04T06:37:20.341Z,88.57
2022-12-04T06:39:46.960Z,93.80
2022-12-04T06:42:13.643Z,99.25
2022-12-04T06:44:40.077Z,83.18
2022-12-04T06:47:06.594Z,88.50
2022-12-04T06:49:33.197Z,98.25
2022-12-04T06:51:59.689Z,86.05
2022-12-04T06:54:26.550Z,97.70
2022-12-04T06:56:52.982Z,84.93
2022-12-04T06:59:20.414Z,85.15
2022-12-04T07:01:46.838Z,85.45
2022-12-04T07:04:13.281Z,81.07
2022-12-04T07:06:40.149Z,81.47
2022-12-04T07:09:08.056Z,100.32
2022-12-04T07:11:35.069Z,70.32
2022-12-04T07:14:01.521Z,78.93
2022-12-04T07:16:28.476Z,74.53
2022-12-04T07:18:55.063Z,77.95
2022-12-04T07:21:22.661Z,84.50
2022-12-04T07:23:50.660Z,75.78
2022-12-04T07:26:17.280Z,88.03
2022-12-04T07:28:45.252Z,82.15
2022-12-04T07:31:13.106Z,99.32
2022-12-04T07:33:40.271Z,80.75
2022-12-04T07:36:08.150Z,82.57
2022-12-04T07:38:35.030Z,86.68
2022-12-04T07:41:03.098Z,72.75
2022-12-04T07:43:30.329Z,97.65
2022-12-04T07:45:57.413Z,73.45
2022-12-04T07:48:28.798Z,79.78
2022-12-04T07:51:04.338Z,86.45
2022-12-04T07:53:30.891Z,78.20
2022-12-04T07:55:57.352Z,72.90
2022-12-04T07:58:23.922Z,83.47
2022-12-04T08:00:50.404Z,78.00
2022-12-04T08:03:16.950Z,83.95
2022-12-04T08:05:43.388Z,91.65
2022-12-04T08:08:09.937Z,75.53
2022-12-04T08:10:36.426Z,63.67
2022-12-04T08:13:02.988Z,73.40
2022-12-04T08:15:30.170Z,85.97
2022-12-04T08:17:56.696Z,71.50
2022-12-04T08:20:23.258Z,74.38
2022-12-04T08:22:49.865Z,73.28
2022-12-04T08:25:16.611Z,85.55
2022-12-04T08:27:47.682Z,68.35
2022-12-04T08:30:14.423Z,78.13
2022-12-04T08:32:40.937Z,73.88
2022-12-04T08:35:07.616Z,84.20
2022-12-04T08:37:34.330Z,97.28
2022-12-04T08:40:00.876Z,72.40
2022-12-04T08:42:27.752Z,74.85
2022-12-04T08:44:54.302Z,70.80
2022-12-04T08:47:20.855Z,72.10
2022-12-04T08:49:47.275Z,63.92
2022-12-04T08:52:13.720Z,82.85
2022-12-04T08:54:40.139Z,58.90
2022-12-04T08:57:06.713Z,86.78
2022-12-04T08:59:33.142Z,59.80
2022-12-04T09:01:59.786Z,61.92
2022-12-04T09:04:26.364Z,70.82
2022-12-04T09:06:53.093Z,66.47
2022-12-04T09:09:19.617Z,64.93
2022-12-04T09:11:46.564Z,62.67
2022-12-04T09:14:13.012Z,71.43
2022-12-04T09:16:39.485Z,64.40
2022-12-04T09:19:05.981Z,67.43
2022-12-04T09:21:32.615Z,62.10
2022-12-04T09:23:59.594Z,70.13
2022-12-04T09:26:27.820Z,78.97
2022-12-04T09:28:54.731Z,74.97
2022-12-04T09:31:21.722Z,58.30
2022-12-04T09:33:48.542Z,72.30
2022-12-04T09:36:18.164Z,71.57
2022-12-04T09:38:45.775Z,67.72
2022-12-04T09:41:23.082Z,73.78
2022-12-04T09:43:57.957Z,56.22
2022-12-04T09:46:33.671Z,81.35
2022-12-04T09:49:03.236Z,71.13
2022-12-04T09:51:30.662Z,60.10
2022-12-04T09:54:05.556Z,65.38
2022-12-04T09:56:32.227Z,79.43
2022-12-04T09:59:03.279Z,60.92
2022-12-04T10:01:36.899Z,68.63
2022-12-04T10:04:06.405Z,68.53
2022-12-04T10:06:40.171Z,69.78
2022-12-04T10:11:42.415Z,59.60
2022-12-04T10:14:11.667Z,73.40
2022-12-04T10:17:02.677Z,67.15
2022-12-04T10:19:32.813Z,51.75
2022-12-04T10:22:05.496Z,60.15
2022-12-04T10:24:31.992Z,66.67
2022-12-04T10:27:00.181Z,78.40
2022-12-04T10:29:32.654Z,60.45
2022-12-04T10:32:03.004Z,83.43
2022-12-04T10:34:29.827Z,69.15
2022-12-04T10:37:01.580Z,56.53
2022-12-04T10:39:37.122Z,82.90
2022-12-04T10:42:03.603Z,79.57
2022-12-04T10:44:30.134Z,65.57
2022-12-04T10:47:00.727Z,68.78
2022-12-04T10:49:29.108Z,56.90
2022-12-04T10:51:55.713Z,75.90
2022-12-04T10:54:35.951Z,81.63
2022-12-04T10:57:04.474Z,66.75
2022-12-04T10:59:31.459Z,56.25
2022-12-04T11:02:21.488Z,51.72
2022-12-04T11:04:52.653Z,56.67
2022-12-04T11:07:20.994Z,51.63
2022-12-04T11:09:58.203Z,64.40
2022-12-04T11:12:25.361Z,61.30
2022-12-04T11:15:01.883Z,57.30
2022-12-04T11:17:28.535Z,51.35
2022-12-04T11:20:21.513Z,47.08
2022-12-04T11:22:52.613Z,50.10
2022-12-04T11:25:20.045Z,46.92
2022-12-04T11:27:48.226Z,61.20
2022-12-04T11:30:16.275Z,64.97
2022-12-04T11:32:44.168Z,55.15
2022-12-04T11:35:18.461Z,61.72
2022-12-04T11:37:52.741Z,54.85
2022-12-04T11:40:20.083Z,75.88
2022-12-04T11:42:57.597Z,51.88
2022-12-04T11:45:24.213Z,53.75
2022-12-04T11:47:54.678Z,55.25
2022-12-04T11:50:33.785Z,79.60
2022-12-04T11:53:18.800Z,72.88
2022-12-04T11:55:45.240Z,72.13
2022-12-04T11:58:22.852Z,77.22
2022-12-04T12:01:11.620Z,58.38
2022-12-04T12:03:45.599Z,78.45
2022-12-04T12:06:15.071Z,71.32
2022-12-04T12:09:04.545Z,62.22
2022-12-04T12:11:49.328Z,65.35
2022-12-04T12:14:34.221Z,75.75
2022-12-04T12:17:26.956Z,72.82
2022-12-04T12:20:11.476Z,59.28
2022-12-04T12:22:37.911Z,74.85
2022-12-04T12:25:16.260Z,83.25
2022-12-04T12:27:50.517Z,77.78
2022-12-04T12:30:20.953Z,88.53
2022-12-04T12:32:58.238Z,65.32
2022-12-04T12:35:28.485Z,63.70
2022-12-04T12:37:59.276Z,56.83
2022-12-04T12:40:46.357Z,76.45
2022-12-04T12:43:15.779Z,69.22
2022-12-04T12:45:54.223Z,69.47
2022-12-04T12:48:30.243Z,96.55
2022-12-04T12:51:22.179Z,99.35
2022-12-04T12:53:51.234Z,84.57
2022-12-04T12:56:30.324Z,68.47
2022-12-04T12:58:58.718Z,61.08
2022-12-04T13:01:31.987Z,69.47
2022-12-04T13:06:28.420Z,59.40
2022-12-04T13:08:59.413Z,66.38
2022-12-04T13:11:27.634Z,58.72
2022-12-04T13:13:58.865Z,57.65
2022-12-04T13:16:27.490Z,64.90
2022-12-04T13:18:57.019Z,49.20
2022-12-04T13:21:26.301Z,69.22
2022-12-04T13:24:04.143Z,48.13
2022-12-04T13:26:49.192Z,63.63
2022-12-04T13:29:26.822Z,74.63
2022-12-04T13:32:11.895Z,69.28
2022-12-04T13:34:39.095Z,68.47
2022-12-04T13:37:34.925Z,56.38
2022-12-04T13:40:20.202Z,75.15
2022-12-04T13:42:46.903Z,41.97
2022-12-04T13:45:25.099Z,54.42
2022-12-04T13:48:01.914Z,50.80
2022-12-04T13:50:35.310Z,62.05
2022-12-04T13:55:28.344Z,51.70
2022-12-04T13:57:56.133Z,48.17
2022-12-04T14:00:33.586Z,67.03
2022-12-04T14:03:04.663Z,77.38
2022-12-04T14:05:33.852Z,54.00
2022-12-04T14:08:08.694Z,45.90
2022-12-04T14:10:36.780Z,55.63
2022-12-04T14:13:23.493Z,62.88
2022-12-04T14:16:02.709Z,45.80
2022-12-04T14:18:30.194Z,44.60
2022-12-04T14:21:01.199Z,73.22
2022-12-04T14:23:34.580Z,55.33
2022-12-04T14:28:36.107Z,56.83
2022-12-04T14:31:08.092Z,52.13
2022-12-04T14:33:39.515Z,58.83
2022-12-04T14:36:08.236Z,72.65
2022-12-04T14:38:34.797Z,46.45
2022-12-04T14:41:01.941Z,53.10
2022-12-04T14:43:33.599Z,60.03
2022-12-04T14:46:00.121Z,59.33
2022-12-04T14:48:26.794Z,56.47
2022-12-04T14:50:53.229Z,60.83
2022-12-04T14:53:32.267Z,49.45
2022-12-04T14:56:01.186Z,63.05
2022-12-04T14:58:35.663Z,68.35
2022-12-04T15:01:03.843Z,59.15
2022-12-04T15:03:31.816Z,54.92
2022-12-04T15:06:05.823Z,61.80
2022-12-04T15:08:32.561Z,62.45
2022-12-04T15:11:17.691Z,68.18
2022-12-04T15:13:44.340Z,71.15
2022-12-04T15:16:15.950Z,77.90
2022-12-04T15:18:52.492Z,60.35
2022-12-04T15:21:19.128Z,64.82
2022-12-04T15:23:45.571Z,53.15
2022-12-04T15:26:17.987Z,64.45
2022-12-04T15:28:58.248Z,66.90
2022-12-04T15:31:27.194Z,45.55
2022-12-04T15:33:56.942Z,48.40
2022-12-04T15:36:32.579Z,54.55
2022-12-04T15:39:00.244Z,53.00
2022-12-04T15:41:31.296Z,54.65
2022-12-04T15:43:57.986Z,56.53
2022-12-04T15:46:35.244Z,52.35
2022-12-04T15:49:28.410Z,76.57
2022-12-04T15:52:13.357Z,50.00
2022-12-04T15:54:44.025Z,72.88
2022-12-04T15:57:30.086Z,82.88
2022-12-04T16:00:01.074Z,56.53
2022-12-04T16:02:29.291Z,53.78
2022-12-04T16:04:55.932Z,60.80
2022-12-04T16:07:24.148Z,47.42
2022-12-04T16:10:03.219Z,57.53
2022-12-04T16:12:31.555Z,57.85
2022-12-04T16:14:58.501Z,62.40
2022-12-04T16:17:29.478Z,70.22
2022-12-04T16:19:56.149Z,48.55
2022-12-04T16:22:23.764Z,57.95
2022-12-04T16:24:50.518Z,50.53
2022-12-04T16:27:22.690Z,71.82
2022-12-04T16:29:50.019Z,63.53
2022-12-04T16:32:17.694Z,54.35
2022-12-04T16:34:44.628Z,52.40
2022-12-04T16:37:12.257Z,52.97
2022-12-04T16:39:41.469Z,49.08
2022-12-04T16:42:16.778Z,90.88
2022-12-04T16:44:43.348Z,66.75
2022-12-04T16:47:11.299Z,51.30
2022-12-04T16:49:37.985Z,52.97
2022-12-04T16:52:04.628Z,50.80
2022-12-04T16:54:31.192Z,56.92
2022-12-04T16:56:57.786Z,51.28
2022-12-04T16:59:24.357Z,40.53
2022-12-04T17:01:51.735Z,44.78
2022-12-04T17:04:18.978Z,61.67
2022-12-04T17:06:46.093Z,46.67
2022-12-04T17:09:12.704Z,78.75
2022-12-04T17:11:39.447Z,56.35
2022-12-04T17:14:07.483Z,72.32
2022-12-04T17:16:37.926Z,60.05
2022-12-04T17:19:04.896Z,47.67
2022-12-04T17:21:31.387Z,52.15
2022-12-04T17:23:57.911Z,52.55
2022-12-04T17:26:24.456Z,63.08
2022-12-04T17:28:51.098Z,47.35
2022-12-04T17:31:22.345Z,48.72
2022-12-04T17:33:49.494Z,47.05
2022-12-04T17:36:16.926Z,57.70
2022-12-04T17:38:43.570Z,36.58
2022-12-04T17:41:13.763Z,46.10
2022-12-04T17:43:41.148Z,41.03
2022-12-04T17:46:12.091Z,45.70
2022-12-04T17:48:38.549Z,53.72
2022-12-04T17:51:06.095Z,53.85
2022-12-04T17:53:32.731Z,57.22
2022-12-04T17:56:03.707Z,50.42
2022-12-04T17:58:30.999Z,55.92
2022-12-04T18:01:01.220Z,45.67
2022-12-04T18:03:27.878Z,41.72
2022-12-04T18:05:54.374Z,30.65
2022-12-04T18:08:22.043Z,43.70
2022-12-04T18:10:48.536Z,53.10
2022-12-04T18:13:15.475Z,45.83
2022-12-04T18:15:41.995Z,46.40
2022-12-04T18:18:08.482Z,55.65
2022-12-04T18:20:35.107Z,53.42
2022-12-04T18:23:01.535Z,42.08
2022-12-04T18:25:28.130Z,43.35
2022-12-04T18:27:54.592Z,37.08
2022-12-04T18:30:21.118Z,51.28
2022-12-04T18:32:48.159Z,53.10
2022-12-04T18:35:14.750Z,45.67
2022-12-04T18:37:41.284Z,39.40
2022-12-04T18:40:08.244Z,68.90
2022-12-04T18:42:35.194Z,56.88
2022-12-04T18:45:01.711Z,50.70
2022-12-04T18:47:28.155Z,49.70
2022-12-04T18:49:55.033Z,40.22
2022-12-04T18:52:21.812Z,57.83
2022-12-04T18:54:48.315Z,43.40
2022-12-04T18:57:14.877Z,51.00
2022-12-04T18:59:41.363Z,43.30
2022-12-04T19:02:09.547Z,63.20
2022-12-04T19:04:36.063Z,42.58
2022-12-04T19:07:02.521Z,38.03
2022-12-04T19:10:08.808Z,43.28
2022-12-04T19:12:15.862Z,60.50
2022-12-04T19:14:42.289Z,44.40
2022-12-04T19:17:09.171Z,53.85
2022-12-04T19:19:35.762Z,59.28
2022-12-04T19:22:02.484Z,53.78
2022-12-04T19:24:29.081Z,47.22
2022-12-04T19:26:55.523Z,50.08
2022-12-04T19:29:21.973Z,48.63
2022-12-04T19:31:48.603Z,40.13
2022-12-04T19:34:15.202Z,56.40
2022-12-04T19:36:42.675Z,67.35
2022-12-04T19:39:09.885Z,55.90
2022-12-04T19:41:38.678Z,48.00
2022-12-04T19:44:20.092Z,46.97
2022-12-04T19:46:52.194Z,42.92
2022-12-04T19:49:18.900Z,48.97
2022-12-04T19:51:45.514Z,63.45
2022-12-04T19:54:12.542Z,56.50
2022-12-04T19:56:39.052Z,49.03
2022-12-04T19:59:06.785Z,40.13
2022-12-04T20:01:35.086Z,57.50
2022-12-04T20:04:02.912Z,41.35
2022-12-04T20:06:30.042Z,48.13
2022-12-04T20:09:00.552Z,37.03
2022-12-04T20:11:28.475Z,49.50
2022-12-04T20:13:55.669Z,45.08
2022-12-04T20:16:23.273Z,48.85
2022-12-04T20:18:49.843Z,45.85
2022-12-04T20:21:16.386Z,66.00
2022-12-04T20:23:46.224Z,59.80
2022-12-04T20:26:13.959Z,55.15
2022-12-04T20:28:40.943Z,48.70
2022-12-04T20:31:12.157Z,49.92
2022-12-04T20:33:38.750Z,62.10
2022-12-04T20:36:05.244Z,66.28
2022-12-04T20:38:31.879Z,39.33
2022-12-04T20:41:02.230Z,36.17
2022-12-04T20:43:28.658Z,46.08
2022-12-04T20:45:55.392Z,56.10
2022-12-04T20:48:21.947Z,53.22
2022-12-04T20:50:49.270Z,48.10
2022-12-04T20:53:15.806Z,43.00
2022-12-04T20:55:42.379Z,69.90
2022-12-04T20:58:08.849Z,49.38
2022-12-04T21:00:35.354Z,40.63
2022-12-04T21:03:01.902Z,44.13
2022-12-04T21:05:28.462Z,38.85
2022-12-04T21:07:54.931Z,40.13
2022-12-04T21:10:21.552Z,54.15
2022-12-04T21:13:06.733Z,35.03
2022-12-04T21:15:51.876Z,44.92
2022-12-04T21:18:18.430Z,52.05
2022-12-04T21:20:45.039Z,47.85
2022-12-04T21:23:11.583Z,58.88
2022-12-04T21:25:38.129Z,39.30
2022-12-04T21:28:04.767Z,40.08
2022-12-04T21:30:31.342Z,43.80
2022-12-04T21:32:57.919Z,49.17
2022-12-04T21:35:24.542Z,33.88
2022-12-04T21:37:50.967Z,39.40
2022-12-04T21:40:17.438Z,57.80
2022-12-04T21:42:44.081Z,54.03
2022-12-04T21:45:10.736Z,73.05
2022-12-04T21:47:37.851Z,41.83
2022-12-04T21:50:05.103Z,43.22
2022-12-04T21:52:31.681Z,46.58
2022-12-04T21:54:58.289Z,63.40
2022-12-04T21:57:24.843Z,38.03
2022-12-04T21:59:52.700Z,45.22
2022-12-04T22:02:19.513Z,45.15
2022-12-04T22:04:46.277Z,47.30
2022-12-04T22:07:12.887Z,52.00
2022-12-04T22:09:39.860Z,56.20
2022-12-04T22:12:26.411Z,51.47
2022-12-04T22:14:53.077Z,36.85
2022-12-04T22:17:19.527Z,61.30
2022-12-04T22:19:46.196Z,46.42
2022-12-04T22:22:12.699Z,61.83
2022-12-04T22:24:39.203Z,38.88
2022-12-04T22:27:05.776Z,51.00
2022-12-04T22:32:19.704Z,41.55
2022-12-04T22:34:47.846Z,38.85
2022-12-04T22:37:14.288Z,45.97
2022-12-04T22:39:40.843Z,60.90
2022-12-04T22:42:07.267Z,62.15
2022-12-04T22:44:33.729Z,39.17
2022-12-04T22:47:00.293Z,33.85
2022-12-04T22:49:26.889Z,48.45
2022-12-04T22:51:53.466Z,63.53
2022-12-04T22:54:19.995Z,66.70
2022-12-04T22:56:46.567Z,58.20
2022-12-04T22:59:13.052Z,49.78
2022-12-04T23:01:39.600Z,49.20
2022-12-04T23:04:06.101Z,48.90
2022-12-04T23:06:33.385Z,57.97
2022-12-04T23:09:01.365Z,41.25
2022-12-04T23:11:28.211Z,50.33
2022-12-04T23:14:01.993Z,42.88
2022-12-04T23:16:30.066Z,42.28
2022-12-04T23:18:56.648Z,53.95
2022-12-04T23:21:23.322Z,44.63
2022-12-04T23:23:50.795Z,47.83
2022-12-04T23:26:18.888Z,46.55
2022-12-04T23:28:45.692Z,46.75
2022-12-04T23:31:12.642Z,45.22
2022-12-04T23:33:39.967Z,54.88
2022-12-04T23:36:07.497Z,66.70
2022-12-04T23:38:34.952Z,44.65
2022-12-04T23:41:20.936Z,49.83
2022-12-04T23:43:48.004Z,40.15
2022-12-04T23:46:15.885Z,53.78
2022-12-04T23:48:43.286Z,52.40
2022-12-04T23:51:10.422Z,48.65
2022-12-04T23:53:37.191Z,45.15
2022-12-04T23:56:06.615Z,50.22
2022-12-04T23:58:33.802Z,41.17
